Time;durP1;ratioP1;P1;durP2;ratioP2;P2;SDS_P1;SDS_P2;PMS_P1;PMS_P2;Temp;Humidity;BMP_temperature;BMP_pressure;BME280_temperature;BME280_humidity;BME280_pressure;Samples;Min_cycle;Max_cycle;Signal;HPM_P1;HPM_P2
2022/04/28 00:00:40;;;;;;;51.85;32.05;;;;;;;7.17;78.00;97825.75;1713622;83;28087;-76
2022/04/28 00:03:07;;;;;;;53.25;31.73;;;;;;;7.15;77.94;97831.30;1713740;83;25884;-76
2022/04/28 00:05:34;;;;;;;46.63;31.00;;;;;;;7.10;78.01;97822.13;1713643;83;25711;-77
2022/04/28 00:08:01;;;;;;;48.98;30.77;;;;;;;7.08;78.06;97820.13;1713757;83;25776;-76
2022/04/28 00:10:28;;;;;;;46.28;29.92;;;;;;;7.08;78.07;97821.47;1713839;83;25691;-76
2022/04/28 00:12:55;;;;;;;48.28;30.60;;;;;;;7.07;78.04;97821.97;1713711;83;28107;-76
2022/04/28 00:15:21;;;;;;;48.98;31.45;;;;;;;7.06;78.03;97820.30;1713600;83;25806;-75
2022/04/28 00:17:48;;;;;;;51.88;32.08;;;;;;;7.06;78.02;97822.14;1713730;83;25788;-75
2022/04/28 00:20:15;;;;;;;50.88;33.05;;;;;;;7.03;77.99;97818.47;1713545;83;25758;-74
2022/04/28 00:22:41;;;;;;;50.95;31.62;;;;;;;6.98;78.03;97819.53;1713911;83;25958;-75
2022/04/28 00:25:09;;;;;;;48.00;30.45;;;;;;;6.95;78.14;97818.54;1713654;83;28016;-75
2022/04/28 00:27:36;;;;;;;49.90;31.62;;;;;;;6.96;78.19;97816.19;1713377;83;25712;-75
2022/04/28 00:30:05;;;;;;;48.08;31.60;;;;;;;6.95;78.21;97817.20;1713975;83;25703;-75
2022/04/28 00:32:32;;;;;;;49.13;30.27;;;;;;;6.94;78.26;97818.20;1718902;83;25773;-75
2022/04/28 00:34:58;;;;;;;49.33;31.12;;;;;;;6.93;78.29;97822.73;1719125;83;25727;-75
2022/04/28 00:37:25;;;;;;;46.53;31.40;;;;;;;6.93;78.34;97821.91;1719178;83;27524;-75
2022/04/28 00:39:52;;;;;;;47.15;32.33;;;;;;;6.95;78.35;97822.56;1719055;83;25739;-76
2022/04/28 00:42:20;;;;;;;55.17;33.95;;;;;;;6.96;78.34;97826.92;1719122;83;25892;-75
2022/04/28 00:44:46;;;;;;;52.85;31.93;;;;;;;6.95;78.32;97827.93;1719149;83;25776;-75
2022/04/28 00:47:14;;;;;;;54.80;32.95;;;;;;;6.95;78.36;97822.06;1719156;83;25696;-74
2022/04/28 00:52:29;;;;;;;50.48;32.55;;;;;;;6.95;78.35;97825.25;1718791;83;25667;-75
2022/04/28 00:54:56;;;;;;;52.53;31.97;;;;;;;6.92;78.32;97821.06;1719121;83;25758;-78
2022/04/28 00:57:24;;;;;;;48.52;30.72;;;;;;;6.92;78.33;97821.57;1719107;83;25882;-77
2022/04/28 00:59:52;;;;;;;50.75;31.85;;;;;;;6.92;78.36;97821.06;1719072;83;25720;-75
2022/04/28 01:02:19;;;;;;;49.98;32.33;;;;;;;6.92;78.37;97822.91;1719101;83;28809;-76
2022/04/28 01:04:48;;;;;;;49.35;31.25;;;;;;;6.93;78.39;97823.24;1719064;83;26079;-75
2022/04/28 01:07:17;;;;;;;53.30;32.28;;;;;;;6.92;78.36;97824.25;1689668;84;25809;-76
2022/04/28 01:09:44;;;;;;;47.58;30.30;;;;;;;6.89;78.33;97824.09;1689371;84;25803;-78
2022/04/28 01:12:15;;;;;;;43.92;30.15;;;;;;;6.83;78.34;97828.34;1689597;84;25741;-76
2022/04/28 01:14:46;;;;;;;47.78;29.67;;;;;;;6.82;78.42;97830.70;1689608;84;28370;-76
2022/04/28 01:17:13;;;;;;;53.28;32.23;;;;;;;6.83;78.50;97830.19;1689471;84;25740;-76
2022/04/28 01:19:40;;;;;;;47.95;31.20;;;;;;;6.82;78.52;97830.70;1689582;84;25893;-75
2022/04/28 01:22:11;;;;;;;44.83;29.65;;;;;;;6.80;78.55;97828.69;1689756;84;25797;-75
2022/04/28 01:24:37;;;;;;;47.45;30.65;;;;;;;6.80;78.56;97823.33;1689211;84;25821;-75
2022/04/28 01:27:07;;;;;;;45.38;29.45;;;;;;;6.82;78.55;97833.38;1689755;84;28410;-75
2022/04/28 01:29:34;;;;;;;51.00;30.55;;;;;;;6.82;78.51;97823.98;1689495;84;25803;-75
2022/04/28 01:32:02;;;;;;;43.60;28.92;;;;;;;6.81;78.52;97826.34;1680118;84;26872;-75
2022/04/28 01:34:29;;;;;;;41.25;28.73;;;;;;;6.81;78.55;97823.66;1677111;85;25733;-76
2022/04/28 01:36:56;;;;;;;48.73;29.57;;;;;;;6.82;78.55;97818.63;1676928;85;25835;-78
2022/04/28 01:39:22;;;;;;;48.25;31.52;;;;;;;6.80;78.54;97820.64;1682383;85;27649;-75
2022/04/28 01:41:50;;;;;;;55.10;33.45;;;;;;;6.80;78.57;97821.14;1686919;85;26013;-75
2022/04/28 01:44:17;;;;;;;46.45;31.35;;;;;;;6.78;78.58;97818.64;1686830;85;25774;-75
2022/04/28 01:46:44;;;;;;;54.60;34.48;;;;;;;6.76;78.55;97819.31;1686947;85;25845;-75
2022/04/28 01:49:12;;;;;;;50.55;30.60;;;;;;;6.69;78.53;97821.05;1688494;83;25799;-76
2022/04/28 01:57:08;;;;;;;43.75;28.45;;;;;;;6.68;78.75;97826.08;1694851;83;25887;-75
2022/04/28 01:59:35;;;;;;;42.62;28.38;;;;;;;6.69;78.77;97823.73;1694933;83;25857;-78
2022/04/28 02:02:02;;;;;;;49.63;30.62;;;;;;;6.69;78.76;97822.39;1695077;84;25780;-78
2022/04/28 02:04:28;;;;;;;45.17;27.67;;;;;;;6.68;78.76;97820.72;1695151;84;27317;-76
2022/04/28 02:06:55;;;;;;;45.43;30.02;;;;;;;6.70;78.81;97821.88;1698552;83;25849;-75
2022/04/28 02:09:22;;;;;;;47.13;30.40;;;;;;;6.71;78.80;97827.08;1723098;83;25735;-78
2022/04/28 02:11:48;;;;;;;45.05;28.17;;;;;;;6.72;78.80;97830.09;1722924;83;25722;-75
2022/04/28 02:14:15;;;;;;;45.23;28.30;;;;;;;6.74;78.81;97828.07;1723039;83;25666;-75
2022/04/28 02:16:41;;;;;;;39.95;25.82;;;;;;;6.76;78.79;97823.34;1723102;83;27474;-76
2022/04/28 02:19:08;;;;;;;43.08;28.70;;;;;;;6.74;78.78;97825.39;1722932;83;26090;-75
2022/04/28 02:21:34;;;;;;;41.00;26.73;;;;;;;6.75;78.80;97829.75;1722926;83;25669;-76
2022/04/28 02:24:01;;;;;;;37.40;25.48;;;;;;;6.73;78.79;97826.40;1722878;83;25814;-76
2022/04/28 02:26:28;;;;;;;39.25;25.88;;;;;;;6.73;78.76;97834.45;1722742;83;25729;-77
2022/04/28 02:28:54;;;;;;;41.58;26.87;;;;;;;6.72;78.79;97831.44;1722990;83;28301;-76
2022/04/28 02:31:21;;;;;;;41.58;26.87;;;;;;;6.72;78.78;97827.41;1725459;82;26100;-75
2022/04/28 02:33:47;;;;;;;39.83;25.97;;;;;;;6.71;78.77;97828.42;1730753;82;25484;-78
2022/04/28 02:36:14;;;;;;;39.13;26.80;;;;;;;6.71;78.77;97824.90;1730948;82;25697;-75
2022/04/28 02:38:40;;;;;;;38.95;26.50;;;;;;;6.69;78.76;97826.41;1731172;82;25713;-75
2022/04/28 02:41:07;;;;;;;41.25;28.02;;;;;;;6.67;78.78;97829.77;1731055;82;27568;-76
2022/04/28 02:43:34;;;;;;;46.73;28.45;;;;;;;6.66;78.79;97830.78;1730879;82;25789;-77
2022/04/28 02:46:01;;;;;;;42.03;28.80;;;;;;;6.64;78.80;97831.45;1730992;82;25645;-75
2022/04/28 02:48:28;;;;;;;41.25;28.40;;;;;;;6.62;78.82;97827.30;1730860;82;26334;-75
2022/04/28 02:50:54;;;;;;;49.33;29.37;;;;;;;6.62;78.84;97824.12;1730823;82;25947;-78
2022/04/28 02:53:21;;;;;;;41.90;28.50;;;;;;;6.62;78.84;97825.46;1730866;82;27615;-77
2022/04/28 02:55:47;;;;;;;45.38;28.75;;;;;;;6.60;78.85;97827.48;1730870;82;25677;-76
2022/04/28 02:58:14;;;;;;;52.05;32.48;;;;;;;6.59;78.78;97833.85;1731103;82;25765;-75
2022/04/28 03:00:40;;;;;;;46.08;30.70;;;;;;;6.56;78.73;97826.66;1730966;82;25767;-75
2022/04/28 03:03:07;;;;;;;46.30;29.77;;;;;;;6.53;78.77;97833.20;1731117;82;25254;-76
2022/04/28 03:10:46;;;;;;;42.88;28.27;;;;;;;6.47;78.77;97835.25;1730467;82;26720;-75
2022/04/28 03:10:51;;;;;;;41.08;27.32;;;;;;;6.44;78.77;97839.62;1731039;82;25725;-75
2022/04/28 03:13:21;;;;;;;40.58;25.45;;;;;;;6.42;78.78;97836.27;1730705;82;25724;-75
2022/04/28 03:15:49;;;;;;;38.45;26.35;;;;;;;6.41;78.75;97838.62;1730997;82;25480;-77
2022/04/28 03:20:46;;;;;;;41.80;27.52;;;;;;;6.34;78.69;97840.34;1639938;87;25826;-75
2022/04/28 03:23:13;;;;;;;40.03;26.15;;;;;;;6.32;78.61;97840.51;1610830;89;25760;-78
2022/04/28 03:25:41;;;;;;;35.58;25.40;;;;;;;6.29;78.58;97845.38;1610657;89;25814;-75
2022/04/28 03:28:08;;;;;;;38.35;26.57;;;;;;;6.26;78.63;97845.24;1610714;89;25788;-75
2022/04/28 03:30:35;;;;;;;40.43;25.57;;;;;;;6.28;78.71;97846.41;1588177;90;27513;-76
2022/04/28 03:33:02;;;;;;;37.85;25.02;;;;;;;6.27;78.76;97852.28;1614235;88;25849;-75
2022/04/28 03:35:29;;;;;;;43.92;28.45;;;;;;;6.27;78.81;97852.78;1614562;88;25901;-75
2022/04/28 03:37:58;;;;;;;45.90;28.90;;;;;;;6.29;78.90;97857.44;1615080;88;25705;-76
2022/04/28 03:40:24;;;;;;;48.40;28.77;;;;;;;6.32;78.91;97858.44;1614699;88;25780;-75
2022/04/28 03:42:51;;;;;;;47.90;29.52;;;;;;;6.33;78.94;97854.75;1615167;88;27548;-75
2022/04/28 03:45:17;;;;;;;48.58;31.07;;;;;;;6.33;79.01;97852.91;1614772;88;26529;-75
2022/04/28 03:47:44;;;;;;;53.78;32.00;;;;;;;6.35;79.12;97858.10;1615146;88;25773;-76
2022/04/28 03:50:11;;;;;;;53.90;31.27;;;;;;;6.37;79.17;97852.91;1614764;88;25723;-76
2022/04/28 03:52:38;;;;;;;47.58;30.20;;;;;;;6.41;79.19;97854.70;1614970;88;25804;-75
2022/04/28 03:55:05;;;;;;;53.85;34.38;;;;;;;6.43;79.17;97858.06;1614859;88;28435;-78
2022/04/28 03:57:32;;;;;;;63.17;35.80;;;;;;;6.42;79.21;97860.41;1614917;88;25538;-76
2022/04/28 03:59:59;;;;;;;65.70;39.42;;;;;;;6.44;79.30;97862.41;1614808;88;25962;-76
2022/04/28 04:02:25;;;;;;;65.75;39.48;;;;;;;6.45;79.37;97870.79;1614994;88;26429;-78
2022/04/28 04:04:52;;;;;;;76.42;38.20;;;;;;;6.47;79.46;97880.84;1614594;88;26586;-75
2022/04/28 04:07:19;;;;;;;71.15;38.85;;;;;;;6.46;79.46;97877.33;1614970;88;27589;-77
2022/04/28 04:09:45;;;;;;;69.22;38.58;;;;;;;6.44;79.55;97879.84;1614814;88;25766;-75
2022/04/28 04:12:12;;;;;;;65.15;38.70;;;;;;;6.39;79.60;97875.52;1614959;88;25887;-76
2022/04/28 04:14:38;;;;;;;81.25;41.68;;;;;;;6.39;79.66;97878.20;1614824;88;25795;-77
2022/04/28 04:17:05;;;;;;;79.67;43.05;;;;;;;6.41;79.76;97878.84;1635107;84;26037;-76
2022/04/28 04:19:31;;;;;;;87.53;42.05;;;;;;;6.43;79.80;97886.22;1703186;84;28338;-78
2022/04/28 04:21:58;;;;;;;89.42;44.33;;;;;;;6.44;79.80;97891.41;1702883;84;25738;-75
2022/04/28 04:24:27;;;;;;;86.85;44.73;;;;;;;6.47;79.84;97886.20;1703344;84;25698;-78
2022/04/28 04:26:54;;;;;;;71.57;41.65;;;;;;;6.47;79.84;97889.73;1703299;84;25778;-76
2022/04/28 04:29:20;;;;;;;76.28;43.68;;;;;;;6.49;79.89;97897.60;1703411;84;25722;-75
2022/04/28 04:34:32;;;;;;;80.47;38.78;;;;;;;6.58;79.86;97901.92;1722677;83;25666;-76
2022/04/28 04:36:59;;;;;;;81.17;42.33;;;;;;;6.59;79.84;97904.94;1723021;83;25232;-76
2022/04/28 04:39:25;;;;;;;78.78;41.77;;;;;;;6.61;79.89;97906.94;1722983;83;25726;-76
2022/04/28 04:41:52;;;;;;;100.15;41.70;;;;;;;6.64;79.87;97904.42;1723172;83;25725;-76
2022/04/28 04:44:18;;;;;;;80.28;40.43;;;;;;;6.66;79.83;97905.89;1722971;83;27544;-75
2022/04/28 04:46:45;;;;;;;82.82;43.55;;;;;;;6.66;79.78;97908.58;1723015;83;25682;-75
2022/04/28 04:49:13;;;;;;;78.78;41.02;;;;;;;6.66;79.74;97905.89;1723090;83;25753;-75
2022/04/28 04:51:40;;;;;;;85.57;42.45;;;;;;;6.67;79.73;97910.25;1693430;84;25716;-76
2022/04/28 04:54:06;;;;;;;78.60;42.93;;;;;;;6.69;79.72;97909.58;1693698;84;25728;-76
2022/04/28 04:56:36;;;;;;;83.78;43.48;;;;;;;6.71;79.71;97912.09;1693420;84;27511;-76
2022/04/28 04:59:03;;;;;;;77.27;40.58;;;;;;;6.72;79.71;97910.58;1693406;84;25807;-76
2022/04/28 05:01:31;;;;;;;79.70;41.88;;;;;;;6.73;79.67;97910.91;1693315;84;25939;-78
2022/04/28 05:03:57;;;;;;;82.22;42.08;;;;;;;6.71;79.64;97910.25;1693438;84;25787;-76
2022/04/28 05:06:24;;;;;;;83.85;44.03;;;;;;;6.72;79.64;97912.42;1693595;84;25696;-76
2022/04/28 05:08:50;;;;;;;76.33;39.95;;;;;;;6.72;79.67;97907.89;1693196;84;27437;-76
2022/04/28 05:11:17;;;;;;;94.70;42.08;;;;;;;6.69;79.62;97910.92;1693448;84;25855;-78
2022/04/28 05:13:44;;;;;;;81.42;42.13;;;;;;;6.69;79.74;97913.60;1693165;84;25831;-76
2022/04/28 05:16:10;;;;;;;87.25;45.83;;;;;;;6.72;79.77;97915.94;1693479;84;25916;-76
2022/04/28 05:18:38;;;;;;;89.50;45.50;;;;;;;6.74;79.69;97919.80;1693576;84;25845;-76
2022/04/28 05:21:04;;;;;;;79.82;42.83;;;;;;;6.72;79.67;97919.97;1693486;84;27740;-76
2022/04/28 05:23:31;;;;;;;78.50;44.60;;;;;;;6.69;79.71;97921.66;1693395;84;25804;-75
2022/04/28 05:25:57;;;;;;;79.50;44.50;;;;;;;6.69;79.86;97922.16;1693362;84;25778;-76
2022/04/28 05:28:30;;;;;;;82.45;44.10;;;;;;;6.74;79.90;97924.66;1692895;82;25950;-76
2022/04/28 05:30:56;;;;;;;;;;;;;;;6.76;79.80;97929.32;1693912;82;25330;-76
2022/04/28 05:33:23;;;;;;;83.58;43.55;;;;;;;6.78;79.81;97930.48;1691104;84;27536;-76
2022/04/28 05:35:50;;;;;;;82.33;43.13;;;;;;;6.78;79.82;97919.25;1691439;84;25905;-76
2022/04/28 05:38:17;;;;;;;82.62;44.27;;;;;;;6.83;79.83;97926.28;1691272;84;26054;-76
2022/04/28 05:40:44;;;;;;;85.85;46.10;;;;;;;6.88;79.81;97933.29;1691301;83;26511;-76
2022/04/28 05:45:58;;;;;;;88.78;46.40;;;;;;;6.95;79.65;97943.34;1691240;82;27374;-76
2022/04/28 05:48:24;;;;;;;85.97;46.08;;;;;;;6.96;79.65;97940.98;1691295;83;25399;-78
2022/04/28 05:50:52;;;;;;;75.57;41.90;;;;;;;6.96;79.66;97940.98;1691235;82;25331;-76
2022/04/28 05:53:19;;;;;;;79.77;41.85;;;;;;;6.99;79.69;97944.67;1691112;82;25905;-76
2022/04/28 05:55:46;;;;;;;70.85;40.60;;;;;;;6.90;79.51;97948.38;1713111;82;25794;-78
2022/04/28 05:58:15;;;;;;;73.07;41.08;;;;;;;6.86;79.74;97951.44;1718243;82;28188;-77
2022/04/28 06:00:42;;;;;;;71.97;41.98;;;;;;;6.86;79.73;97952.78;1686031;84;25796;-76
2022/04/28 06:03:09;;;;;;;76.72;42.88;;;;;;;6.88;79.86;97962.81;1661407;86;26362;-76
2022/04/28 06:05:36;;;;;;;77.78;41.37;;;;;;;6.91;79.91;97960.28;1718450;83;26571;-76
2022/04/28 06:08:02;;;;;;;67.97;39.70;;;;;;;6.90;79.93;97954.59;1686281;85;25910;-75
2022/04/28 06:10:29;;;;;;;68.40;38.92;;;;;;;6.90;80.02;97959.95;1661424;86;28192;-76
2022/04/28 06:12:56;;;;;;;65.52;38.38;;;;;;;6.93;80.08;97958.77;1718484;82;25733;-77
2022/04/28 06:15:22;;;;;;;71.77;41.25;;;;;;;6.97;80.05;97960.11;1686274;85;25788;-76
2022/04/28 06:17:49;;;;;;;73.95;43.10;;;;;;;6.95;80.07;97964.81;1686135;85;26541;-75
2022/04/28 06:20:16;;;;;;;76.45;42.05;;;;;;;7.03;80.15;97958.05;1661490;85;25693;-76
2022/04/28 06:22:44;;;;;;;75.80;43.08;;;;;;;7.12;80.06;97963.23;1718288;82;27417;-75
2022/04/28 06:25:11;;;;;;;76.45;44.90;;;;;;;7.20;80.00;97969.05;1686005;85;25663;-76
2022/04/28 06:27:38;;;;;;;79.15;46.85;;;;;;;7.23;80.03;97970.05;1686153;85;25289;-76
2022/04/28 06:30:06;;;;;;;82.92;46.45;;;;;;;7.30;80.09;97960.76;1661520;86;26536;-76
2022/04/28 06:32:33;;;;;;;75.20;43.70;;;;;;;7.37;80.12;97961.20;1722989;82;25366;-78
2022/04/28 06:35:00;;;;;;;88.55;46.92;;;;;;;7.50;80.09;97964.64;1699073;83;27520;-77
2022/04/28 06:37:26;;;;;;;88.33;48.08;;;;;;;7.61;80.02;97967.45;1699315;83;25711;-78
2022/04/28 06:39:53;;;;;;;88.15;47.08;;;;;;;7.73;80.05;97964.67;1683916;85;25769;-75
2022/04/28 06:42:19;;;;;;;84.47;48.68;;;;;;;7.83;79.76;97962.58;1699493;84;25846;-78
2022/04/28 06:44:47;;;;;;;78.05;46.92;;;;;;;7.90;79.51;97963.52;1699511;84;25751;-75
2022/04/28 06:47:14;;;;;;;84.62;48.00;;;;;;;8.01;79.59;97965.77;1699464;84;27437;-76
2022/04/28 06:49:41;;;;;;;77.55;45.78;;;;;;;8.11;79.45;97967.69;1699331;84;25773;-75
2022/04/28 06:52:07;;;;;;;77.80;45.43;;;;;;;8.19;79.11;97965.45;1699213;84;25695;-76
2022/04/28 06:54:34;;;;;;;75.78;45.08;;;;;;;8.21;79.00;97957.50;1699298;84;25919;-75
2022/04/28 06:57:01;;;;;;;71.90;44.95;;;;;;;8.29;78.95;97952.56;1699592;84;25647;-76
2022/04/28 06:59:27;;;;;;;73.07;44.73;;;;;;;8.38;78.93;97960.07;1699692;84;27615;-75
2022/04/28 07:01:54;;;;;;;68.35;41.70;;;;;;;8.49;79.08;97960.45;1699560;84;25840;-76
2022/04/28 07:04:21;;;;;;;63.20;41.08;;;;;;;8.59;78.96;97956.13;1699589;84;25749;-78
2022/04/28 07:06:47;;;;;;;66.40;41.05;;;;;;;8.64;78.78;97957.77;1699562;84;26513;-76
2022/04/28 07:09:14;;;;;;;67.17;41.37;;;;;;;8.64;78.34;97957.26;1699487;84;25422;-76
2022/04/28 07:11:40;;;;;;;69.97;42.67;;;;;;;8.67;78.43;97957.41;1699387;84;27443;-76
2022/04/28 07:14:07;;;;;;;64.50;40.15;;;;;;;8.75;78.29;97955.95;1699451;84;25224;-79
2022/04/28 07:16:34;;;;;;;57.00;37.75;;;;;;;8.85;78.19;97956.50;1699529;84;25689;-78
2022/04/28 07:19:03;;;;;;;58.58;36.60;;;;;;;8.97;78.21;97956.34;1699591;84;26467;-79
2022/04/28 07:21:30;;;;;;;62.65;36.08;;;;;;;9.07;78.01;97961.44;1699785;84;25820;-76
2022/04/28 07:23:56;;;;;;;59.23;36.28;;;;;;;9.18;77.73;97950.68;1699698;84;27397;-79
2022/04/28 07:26:23;;;;;;;52.85;33.83;;;;;;;9.27;77.60;97954.45;1699576;84;26285;-76
2022/04/28 07:28:50;;;;;;;53.05;33.75;;;;;;;9.39;77.32;97961.01;1699570;84;25851;-77
2022/04/28 07:31:16;;;;;;;52.10;34.08;;;;;;;9.54;77.17;97951.50;1699450;84;26580;-80
2022/04/28 07:33:43;;;;;;;53.42;33.50;;;;;;;9.73;76.87;97944.14;1678646;84;25755;-76
2022/04/28 07:36:09;;;;;;;51.60;32.03;;;;;;;9.93;76.91;97950.22;1669153;85;27395;-79
2022/04/28 07:38:36;;;;;;;54.88;32.60;;;;;;;10.26;77.35;97951.39;1718653;82;25743;-77
2022/04/28 07:41:02;;;;;;;48.52;31.75;;;;;;;10.68;77.05;97952.27;1686341;85;25776;-77
2022/04/28 07:43:29;;;;;;;51.20;32.42;;;;;;;11.20;76.64;97949.01;1686294;84;25721;-76
2022/04/28 07:45:56;;;;;;;41.30;28.62;;;;;;;11.70;76.11;97941.45;1661757;85;25716;-77
2022/04/28 07:48:24;;;;;;;40.52;27.85;;;;;;;12.21;75.72;97944.42;1718122;82;25827;-77
2022/04/28 07:50:51;;;;;;;45.08;28.98;;;;;;;12.57;74.32;97942.09;1686457;85;25724;-77
2022/04/28 07:53:18;;;;;;;40.90;27.90;;;;;;;13.04;73.70;97944.71;1661796;86;25914;-78
2022/04/28 07:56:10;;;;;;;39.75;26.87;;;;;;;13.42;72.92;97942.89;1718767;82;26173;-78
2022/04/28 07:58:13;;;;;;;40.25;26.12;;;;;;;13.84;72.40;97946.83;1714250;83;25742;-78
2022/04/28 08:00:40;;;;;;;31.75;22.25;;;;;;;14.24;71.55;97943.83;1718694;82;27538;-74
2022/04/28 08:03:06;;;;;;;26.40;20.00;;;;;;;14.67;71.21;97941.16;1686131;84;25685;-74
2022/04/28 08:05:33;;;;;;;25.52;19.32;;;;;;;15.10;70.34;97943.81;1686282;85;25732;-75
2022/04/28 08:08:00;;;;;;;23.77;17.57;;;;;;;15.29;68.29;97931.88;1661775;85;25663;-78
2022/04/28 08:10:26;;;;;;;18.98;14.73;;;;;;;15.62;68.56;97935.55;1718674;83;25433;-74
2022/04/28 08:12:54;;;;;;;18.23;13.00;;;;;;;16.01;67.48;97926.50;1686141;85;28245;-74
2022/04/28 08:15:21;;;;;;;15.55;11.68;;;;;;;16.28;65.79;97930.47;1607001;88;25822;-73
2022/04/28 08:17:48;;;;;;;17.57;11.48;;;;;;;16.57;65.54;97928.69;1623455;88;25835;-77
2022/04/28 08:20:14;;;;;;;14.25;11.38;;;;;;;16.73;64.56;97925.30;1623328;88;26569;-74
2022/04/28 08:22:41;;;;;;;17.30;10.40;;;;;;;16.49;63.95;97929.05;1623402;88;25783;-74
2022/04/28 08:25:08;;;;;;;17.73;11.75;;;;;;;16.29;62.86;97936.22;1623311;88;27620;-74
2022/04/28 08:27:35;;;;;;;13.55;9.75;;;;;;;15.75;62.65;97935.36;1623251;88;25858;-74
2022/04/28 08:30:01;;;;;;;11.48;7.97;;;;;;;15.56;62.51;97932.93;1652912;85;25937;-75
2022/04/28 08:32:28;;;;;;;9.40;7.28;;;;;;;15.52;62.10;97937.13;1652468;86;26634;-75
2022/04/28 08:34:54;;;;;;;12.70;7.60;;;;;;;15.56;61.46;97934.29;1599707;88;26330;-76
2022/04/28 08:37:21;;;;;;;13.30;7.97;;;;;;;15.33;60.66;97939.89;1628827;88;27489;-78
2022/04/28 08:39:48;;;;;;;10.15;7.42;;;;;;;14.98;60.16;97941.02;1599756;89;25937;-74
2022/04/28 08:42:19;;;;;;;9.10;6.78;;;;;;;14.56;59.68;97937.29;1628425;86;25805;-77
2022/04/28 08:44:45;;;;;;;8.35;6.65;;;;;;;14.72;60.44;97940.80;1599782;89;25794;-75
2022/04/28 08:47:13;;;;;;;8.50;6.47;;;;;;;15.09;60.19;97939.45;1628864;88;25870;-79
2022/04/28 08:49:44;;;;;;;9.83;6.95;;;;;;;15.23;59.84;97936.86;1599807;89;27763;-78
2022/04/28 08:52:12;;;;;;;9.60;5.90;;;;;;;15.26;58.99;97935.58;1628652;88;25744;-75
2022/04/28 08:54:40;;;;;;;9.13;7.37;;;;;;;15.19;57.87;97934.84;1599780;89;25824;-75
2022/04/28 08:57:07;;;;;;;9.43;7.05;;;;;;;15.00;58.20;97939.44;1628661;88;26624;-74
2022/04/28 08:59:33;;;;;;;12.85;8.25;;;;;;;14.92;58.52;97951.98;1599899;89;25751;-75
2022/04/28 09:02:00;;;;;;;9.73;7.47;;;;;;;14.87;57.66;97947.73;1628786;88;27474;-74
2022/04/28 09:04:27;;;;;;;10.82;7.08;;;;;;;14.64;57.42;97945.14;1599939;89;25854;-75
2022/04/28 09:06:56;;;;;;;9.68;7.20;;;;;;;14.45;57.48;97942.10;1691415;84;26368;-75
2022/04/28 09:09:26;;;;;;;10.38;6.50;;;;;;;14.40;57.53;97940.56;1663029;86;25826;-74
2022/04/28 09:11:58;;;;;;;6.60;5.25;;;;;;;14.35;57.42;97939.03;1663293;86;25698;-77
2022/04/28 09:14:25;;;;;;;8.23;5.37;;;;;;;14.33;57.26;97941.97;1645534;87;27460;-75
2022/04/28 09:17:00;;;;;;;7.42;5.53;;;;;;;14.43;56.54;97940.12;1648681;87;25785;-78
2022/04/28 09:19:34;;;;;;;8.15;5.35;;;;;;;14.53;56.43;97940.45;1648795;87;25692;-74
2022/04/28 09:22:10;;;;;;;10.32;5.28;;;;;;;14.52;55.86;97935.23;1648550;87;26319;-78
2022/04/28 09:24:42;;;;;;;8.30;4.67;;;;;;;14.44;55.84;97937.72;1601544;88;25832;-77
2022/04/28 09:27:09;;;;;;;7.55;5.30;;;;;;;14.33;55.27;97941.13;1601652;88;27430;-74
2022/04/28 09:29:39;;;;;;;7.95;5.20;;;;;;;14.36;55.60;97940.70;1601497;88;26729;-73
2022/04/28 09:32:13;;;;;;;10.35;5.78;;;;;;;14.38;55.62;97944.00;1580569;88;25907;-75
2022/04/28 09:34:48;;;;;;;8.28;5.10;;;;;;;14.37;55.59;97943.69;1629249;86;25847;-74
2022/04/28 09:37:23;;;;;;;6.53;4.80;;;;;;;14.25;54.96;97949.56;1635635;86;25819;-77
2022/04/28 09:42:42;;;;;;;6.28;4.90;;;;;;;14.00;54.88;97938.69;1640975;87;25850;-75
2022/04/28 09:45:12;;;;;;;6.25;5.10;;;;;;;14.08;54.76;97942.48;1641171;87;25790;-75
2022/04/28 09:47:38;;;;;;;5.47;4.72;;;;;;;14.06;54.36;97941.87;1640971;87;25805;-78
2022/04/28 09:50:17;;;;;;;9.38;5.35;;;;;;;13.94;54.15;97943.63;1641281;87;25826;-74
2022/04/28 09:52:46;;;;;;;6.97;4.67;;;;;;;13.92;54.13;97942.48;1640872;87;26863;-74
2022/04/28 09:55:15;;;;;;;7.70;5.25;;;;;;;13.89;54.03;97948.34;1641236;87;25959;-74
2022/04/28 09:57:41;;;;;;;8.00;4.97;;;;;;;13.85;54.20;97949.85;1641262;87;25791;-75
2022/04/28 10:00:09;;;;;;;7.87;5.30;;;;;;;13.86;53.91;97949.33;1641329;87;25866;-74
2022/04/28 10:02:37;;;;;;;6.45;4.62;;;;;;;13.85;53.09;97945.78;1655334;86;25751;-74
2022/04/28 10:05:05;;;;;;;7.47;5.70;;;;;;;13.81;53.59;97942.36;1660403;86;27577;-75
2022/04/28 10:07:36;;;;;;;7.67;5.37;;;;;;;13.90;53.43;97944.58;1661843;86;25891;-76
2022/04/28 10:10:03;;;;;;;9.70;4.80;;;;;;;13.85;52.97;97933.57;1665205;86;26211;-75
2022/04/28 10:12:30;;;;;;;6.95;4.20;;;;;;;13.80;52.78;97941.52;1665276;84;25841;-77
2022/04/28 10:14:57;;;;;;;7.45;4.78;;;;;;;13.79;52.84;97937.14;1665304;84;26078;-78
2022/04/28 10:17:44;;;;;;;9.13;4.67;;;;;;;13.76;52.53;97934.06;1665213;86;28080;-75
2022/04/28 10:20:35;;;;;;;4.65;3.92;;;;;;;13.81;52.18;97938.28;1674657;84;25946;-75
2022/04/28 10:23:06;;;;;;;6.58;4.97;;;;;;;13.91;52.30;97938.11;1674752;84;26059;-75
2022/04/28 10:34:14;;;;;;;7.42;4.87;;;;;;;14.37;51.51;97924.16;1591452;90;25983;-75
2022/04/28 10:36:58;;;;;;;8.45;4.80;;;;;;;14.44;50.94;97928.22;1589222;90;26926;-75
2022/04/28 10:39:42;;;;;;;7.22;4.90;;;;;;;14.50;51.00;97932.73;1589295;89;26582;-74
2022/04/28 10:42:30;;;;;;;5.28;4.40;;;;;;;14.57;50.49;97932.69;1590782;88;25842;-76
2022/04/28 10:44:58;;;;;;;4.75;4.20;;;;;;;14.80;50.75;97929.32;1586311;89;27479;-74
2022/04/28 10:47:41;;;;;;;5.45;4.20;;;;;;;15.13;50.60;97931.95;1586224;90;25852;-77
2022/04/28 10:50:25;;;;;;;8.65;4.87;;;;;;;15.35;50.09;97932.84;1586134;90;25820;-75
2022/04/28 10:53:00;;;;;;;7.28;5.83;;;;;;;15.84;50.04;97918.16;1586052;89;25741;-74
2022/04/28 10:55:43;;;;;;;7.03;5.53;;;;;;;16.42;50.59;97921.55;1586314;90;25820;-76
2022/04/28 10:58:20;;;;;;;;;;;;;;;16.70;50.22;97924.41;1588758;90;27377;-75
2022/04/28 11:00:59;;;;;;;6.35;5.33;;;;;;;16.84;48.99;97927.72;1586291;90;25772;-75
2022/04/28 11:03:56;;;;;;;7.55;5.80;;;;;;;16.90;49.80;97921.32;1586193;90;25836;-76
2022/04/28 11:06:37;;;;;;;9.45;6.22;;;;;;;16.88;49.04;97922.09;1561825;90;25911;-75
2022/04/28 11:09:07;;;;;;;7.25;5.30;;;;;;;16.85;48.68;97917.94;1586294;90;25835;-75
2022/04/28 11:11:47;;;;;;;6.97;5.05;;;;;;;17.23;49.39;97913.84;1558741;90;28174;-74
2022/04/28 11:14:15;;;;;;;5.30;4.55;;;;;;;17.78;48.89;97914.66;1564776;90;25535;-76
2022/04/28 11:16:43;;;;;;;8.03;5.17;;;;;;;18.22;47.74;97923.39;1564802;90;25894;-76
2022/04/28 11:19:11;;;;;;;8.28;4.45;;;;;;;18.57;46.37;97919.56;1538459;92;26476;-78
2022/04/28 11:21:39;;;;;;;10.95;5.37;;;;;;;18.87;46.71;97923.30;1550710;89;25751;-74
2022/04/28 11:24:07;;;;;;;6.08;5.45;;;;;;;18.96;46.23;97918.52;1588471;88;28327;-76
2022/04/28 11:26:36;;;;;;;8.53;5.03;;;;;;;18.77;45.22;97921.80;1588577;88;25717;-74
2022/04/28 11:29:08;;;;;;;5.00;4.42;;;;;;;17.86;43.09;97921.11;1686378;84;25799;-77
2022/04/28 11:31:37;;;;;;;9.20;4.90;;;;;;;17.03;43.57;97933.31;1615181;87;25778;-79
2022/04/28 11:34:05;;;;;;;6.22;4.62;;;;;;;16.44;44.06;97934.38;1619252;86;25839;-74
2022/04/28 11:36:32;;;;;;;6.60;4.42;;;;;;;16.05;44.69;97926.34;1635278;87;27093;-75
2022/04/28 11:39:02;;;;;;;7.85;4.47;;;;;;;15.75;44.81;97938.08;1629330;87;25495;-75
2022/04/28 11:41:40;;;;;;;6.67;4.65;;;;;;;15.52;45.40;97939.84;1626186;88;25859;-74
2022/04/28 11:44:16;;;;;;;5.55;4.17;;;;;;;15.35;45.46;97949.98;1626163;88;25763;-75
2022/04/28 11:46:50;;;;;;;6.35;4.95;;;;;;;15.23;46.36;97946.91;1610987;87;25840;-76
2022/04/28 11:49:18;;;;;;;8.00;5.00;;;;;;;15.22;46.22;97941.99;1610730;87;27449;-74
2022/04/28 11:51:46;;;;;;;6.60;4.25;;;;;;;15.28;46.55;97946.53;1610667;88;25824;-74
2022/04/28 11:54:20;;;;;;;6.08;4.25;;;;;;;15.34;46.59;97941.52;1610982;87;25959;-75
2022/04/28 11:56:50;;;;;;;9.80;4.90;;;;;;;15.36;46.26;97939.94;1621546;87;25705;-74
2022/04/28 11:59:18;;;;;;;5.90;4.72;;;;;;;15.27;45.97;97943.52;1624847;87;25914;-74
2022/04/28 12:01:45;;;;;;;6.62;4.53;;;;;;;15.26;46.16;97945.09;1624919;86;27394;-75